createdAt,value
2022-11-17T00:00:38.968Z,227.30
2022-11-17T00:03:05.493Z,176.07
2022-11-17T00:05:31.891Z,288.95
2022-11-17T00:07:58.427Z,183.30
2022-11-17T00:10:26.847Z,243.52
2022-11-17T00:13:11.962Z,177.50
2022-11-17T00:15:42.771Z,240.93
2022-11-17T00:18:27.709Z,83.50
2022-11-17T00:21:12.803Z,188.43
2022-11-17T00:23:48.465Z,237.82
2022-11-17T00:26:22.817Z,262.65
2022-11-17T00:28:54.250Z,214.10
2022-11-17T00:31:40.514Z,153.95
2022-11-17T00:34:07.724Z,151.02
2022-11-17T00:36:45.098Z,112.20
2022-11-17T00:39:13.003Z,191.07
2022-11-17T00:41:39.473Z,304.25
2022-11-17T00:44:06.454Z,240.80
2022-11-17T00:46:33.813Z,306.23
2022-11-17T00:49:00.399Z,186.52
2022-11-17T00:51:26.999Z,237.48
2022-11-17T00:53:53.989Z,133.57
2022-11-17T00:56:20.367Z,99.85
2022-11-17T00:58:46.775Z,189.77
2022-11-17T01:01:13.612Z,326.00
2022-11-17T01:03:40.159Z,153.88
2022-11-17T01:06:12.162Z,199.18
2022-11-17T01:08:38.955Z,232.50
2022-11-17T01:11:14.617Z,286.65
2022-11-17T01:13:42.270Z,189.95
2022-11-17T01:16:17.370Z,178.98
2022-11-17T01:18:45.711Z,206.52
2022-11-17T01:21:13.683Z,147.70
2022-11-17T01:23:42.244Z,84.72
2022-11-17T01:26:17.755Z,33.17
2022-11-17T01:28:44.543Z,50.15
2022-11-17T01:31:13.171Z,102.65
2022-11-17T01:33:40.303Z,131.55
2022-11-17T01:36:28.155Z,89.78
2022-11-17T01:38:54.952Z,117.93
2022-11-17T01:41:26.573Z,218.50
2022-11-17T01:43:58.520Z,333.80
2022-11-17T01:46:39.246Z,281.27
2022-11-17T01:49:13.811Z,139.40
2022-11-17T01:51:45.058Z,200.07
2022-11-17T01:56:44.320Z,210.73
2022-11-17T01:59:25.383Z,155.30
2022-11-17T02:01:57.772Z,285.77
2022-11-17T02:04:29.897Z,126.82
2022-11-17T02:07:05.290Z,232.20
2022-11-17T02:09:35.365Z,219.60
2022-11-17T02:12:02.888Z,270.30
2022-11-17T02:14:29.297Z,168.90
2022-11-17T02:16:56.042Z,264.35
2022-11-17T02:19:26.945Z,170.82
2022-11-17T02:22:33.851Z,146.38
2022-11-17T02:25:29.662Z,232.60
2022-11-17T02:28:14.753Z,225.35
2022-11-17T02:30:51.977Z,168.05
2022-11-17T02:33:25.331Z,252.68
2022-11-17T02:36:07.792Z,192.25
2022-11-17T02:38:57.247Z,206.73
2022-11-17T02:41:30.630Z,230.15
2022-11-17T02:44:09.837Z,217.27
2022-11-17T02:46:51.168Z,240.95
2022-11-17T02:49:22.180Z,223.52
2022-11-17T02:51:52.315Z,186.85
2022-11-17T02:54:21.040Z,230.30
2022-11-17T02:56:47.408Z,161.02
2022-11-17T02:59:17.367Z,252.30
2022-11-17T03:02:10.954Z,208.43
2022-11-17T03:04:55.821Z,156.93
2022-11-17T03:07:37.501Z,172.65
2022-11-17T03:10:14.898Z,191.27
2022-11-17T03:12:53.679Z,262.48
2022-11-17T03:15:25.991Z,91.88
2022-11-17T03:18:04.244Z,253.63
2022-11-17T03:21:12.417Z,126.05
2022-11-17T03:24:05.368Z,243.38
2022-11-17T03:26:35.889Z,228.00
2022-11-17T03:29:06.569Z,155.00
2022-11-17T03:31:34.978Z,265.83
2022-11-17T03:34:05.130Z,180.00
2022-11-17T03:36:39.043Z,223.45
2022-11-17T03:39:19.382Z,190.45
2022-11-17T03:41:49.501Z,242.02
2022-11-17T03:44:19.779Z,161.48
2022-11-17T03:46:48.981Z,276.90
2022-11-17T03:49:25.851Z,224.38
2022-11-17T03:54:18.920Z,203.85
2022-11-17T03:56:55.407Z,345.02
2022-11-17T03:59:31.482Z,210.55
2022-11-17T04:01:58.694Z,191.35
2022-11-17T04:04:45.326Z,221.25
2022-11-17T04:07:11.674Z,222.02
2022-11-17T04:09:38.159Z,170.85
2022-11-17T04:12:23.456Z,262.38
2022-11-17T04:15:08.415Z,171.43
2022-11-17T04:17:34.877Z,215.00
2022-11-17T04:20:01.288Z,253.20
2022-11-17T04:22:27.644Z,205.55
2022-11-17T04:24:54.014Z,211.18
2022-11-17T04:27:39.140Z,281.40
2022-11-17T04:30:05.876Z,232.35
2022-11-17T04:32:32.362Z,235.05
2022-11-17T04:34:58.736Z,233.40
2022-11-17T04:37:25.069Z,349.95
2022-11-17T04:39:51.437Z,323.85
2022-11-17T04:42:17.890Z,255.73
2022-11-17T04:44:44.242Z,266.95
2022-11-17T04:47:10.591Z,243.75
2022-11-17T04:49:36.902Z,269.92
2022-11-17T04:52:05.786Z,95.25
2022-11-17T04:54:32.220Z,209.25
2022-11-17T04:56:58.659Z,351.67
2022-11-17T04:59:25.161Z,206.80
2022-11-17T05:01:51.660Z,203.23
2022-11-17T05:04:39.781Z,228.40
2022-11-17T05:07:08.130Z,230.73
2022-11-17T05:09:34.820Z,282.35
2022-11-17T05:12:19.553Z,156.65
2022-11-17T05:14:48.979Z,203.50
2022-11-17T05:17:15.866Z,264.73
2022-11-17T05:19:46.925Z,179.50
2022-11-17T05:22:35.915Z,228.32
2022-11-17T05:25:04.890Z,284.70
2022-11-17T05:27:31.568Z,251.73
2022-11-17T05:29:57.898Z,200.88
2022-11-17T05:32:24.262Z,224.70
2022-11-17T05:34:50.831Z,309.35
2022-11-17T05:37:17.365Z,178.57
2022-11-17T05:39:43.733Z,283.75
2022-11-17T05:42:10.172Z,222.23
2022-11-17T05:44:36.586Z,209.73
2022-11-17T05:47:02.922Z,268.63
2022-11-17T05:49:29.269Z,315.48
2022-11-17T05:51:55.705Z,235.05
2022-11-17T05:54:22.087Z,334.45
2022-11-17T05:56:53.282Z,256.25
2022-11-17T05:59:28.421Z,355.60
2022-11-17T06:02:02.389Z,242.15
2022-11-17T06:04:28.933Z,279.40
2022-11-17T06:06:59.361Z,313.73
2022-11-17T06:09:28.638Z,256.75
2022-11-17T06:11:55.112Z,286.52
2022-11-17T06:14:21.473Z,263.15
2022-11-17T06:16:51.471Z,261.52
2022-11-17T06:19:27.119Z,253.73
2022-11-17T06:22:11.143Z,386.20
2022-11-17T06:24:39.102Z,233.25
2022-11-17T06:27:05.847Z,295.85
2022-11-17T06:29:32.408Z,242.40
2022-11-17T06:31:59.282Z,209.45
2022-11-17T06:34:27.555Z,259.83
2022-11-17T06:36:53.894Z,239.77
2022-11-17T06:39:20.300Z,241.85
2022-11-17T06:41:46.638Z,284.92
2022-11-17T06:44:13.006Z,152.00
2022-11-17T06:46:39.351Z,217.00
2022-11-17T06:49:07.485Z,137.93
2022-11-17T06:51:40.953Z,216.10
2022-11-17T06:54:12.327Z,154.07
2022-11-17T06:56:38.821Z,219.98
2022-11-17T06:59:05.369Z,186.65
2022-11-17T07:01:32.051Z,158.70
2022-11-17T07:03:58.549Z,192.55
2022-11-17T07:06:24.930Z,374.17
2022-11-17T07:08:51.365Z,197.60
2022-11-17T07:11:18.063Z,234.65
2022-11-17T07:13:44.819Z,329.95
2022-11-17T07:16:22.943Z,282.38
2022-11-17T07:18:50.492Z,241.23
2022-11-17T07:21:17.899Z,226.15
2022-11-17T07:23:45.646Z,317.45
2022-11-17T07:26:12.251Z,279.58
2022-11-17T07:28:39.033Z,179.63
2022-11-17T07:31:08.312Z,378.98
2022-11-17T07:33:35.463Z,216.13
2022-11-17T07:36:07.734Z,179.63
2022-11-17T07:38:35.725Z,241.35
2022-11-17T07:41:03.933Z,150.73
2022-11-17T07:43:31.243Z,103.57
2022-11-17T07:45:57.735Z,105.10
2022-11-17T07:48:24.368Z,240.77
2022-11-17T07:50:51.036Z,124.97
2022-11-17T07:53:17.625Z,120.18
2022-11-17T07:55:44.006Z,162.90
2022-11-17T07:58:10.555Z,112.47
2022-11-17T08:00:37.109Z,163.90
2022-11-17T08:03:04.354Z,245.60
2022-11-17T08:05:37.099Z,197.13
2022-11-17T08:08:07.969Z,219.68
2022-11-17T08:10:34.637Z,151.63
2022-11-17T08:13:01.250Z,165.85
2022-11-17T08:15:29.532Z,143.38
2022-11-17T08:17:58.154Z,203.32
2022-11-17T08:20:25.611Z,138.85
2022-11-17T08:22:53.074Z,243.50
2022-11-17T08:25:21.321Z,163.43
2022-11-17T08:27:51.868Z,148.23
2022-11-17T08:30:20.407Z,141.02
2022-11-17T08:32:49.212Z,161.98
2022-11-17T08:35:17.085Z,140.52
2022-11-17T08:37:43.517Z,44.38
2022-11-17T08:40:11.013Z,111.13
2022-11-17T08:42:37.666Z,75.90
2022-11-17T08:45:05.972Z,108.75
2022-11-17T08:47:32.417Z,147.57
2022-11-17T08:49:58.859Z,116.65
2022-11-17T08:52:27.688Z,31.55
2022-11-17T08:54:54.458Z,38.20
2022-11-17T08:57:23.855Z,67.10
2022-11-17T08:59:50.812Z,75.07
2022-11-17T09:02:17.801Z,24.98
2022-11-17T09:04:46.093Z,39.92
2022-11-17T09:07:12.641Z,26.15
2022-11-17T09:09:39.290Z,40.97
2022-11-17T09:12:05.962Z,29.85
2022-11-17T09:14:32.503Z,22.52
2022-11-17T09:16:59.287Z,32.20
2022-11-17T09:19:25.793Z,36.03
2022-11-17T09:21:52.229Z,34.28
2022-11-17T09:24:18.669Z,49.75
2022-11-17T09:26:45.108Z,50.78
2022-11-17T09:29:11.848Z,54.53
2022-11-17T09:31:38.702Z,142.38
2022-11-17T09:34:06.078Z,80.47
2022-11-17T09:36:33.035Z,33.08
2022-11-17T09:38:59.399Z,33.30
2022-11-17T09:41:38.424Z,28.98
2022-11-17T09:44:26.074Z,26.20
2022-11-17T09:46:55.643Z,24.35
2022-11-17T09:49:58.654Z,21.45
2022-11-17T09:52:36.993Z,26.55
2022-11-17T09:55:34.377Z,28.88
2022-11-17T09:58:03.896Z,23.77
2022-11-17T10:00:32.807Z,26.88
2022-11-17T10:02:59.312Z,32.17
2022-11-17T10:05:32.972Z,22.50
2022-11-17T10:08:03.454Z,24.73
2022-11-17T10:10:39.545Z,28.85
2022-11-17T10:13:14.310Z,28.45
2022-11-17T10:15:50.212Z,23.80
2022-11-17T10:18:17.449Z,26.15
2022-11-17T10:20:44.902Z,26.45
2022-11-17T10:23:19.477Z,21.05
2022-11-17T10:25:48.196Z,27.33
2022-11-17T10:28:32.312Z,28.02
2022-11-17T10:31:16.396Z,29.98
2022-11-17T10:33:45.953Z,24.98
2022-11-17T10:36:25.435Z,27.35
2022-11-17T10:38:54.291Z,31.48
2022-11-17T10:41:41.551Z,30.08
2022-11-17T10:44:25.097Z,26.55
2022-11-17T10:47:02.578Z,28.63
2022-11-17T10:49:40.340Z,23.23
2022-11-17T10:52:16.215Z,26.30
2022-11-17T10:54:43.215Z,31.15
2022-11-17T10:57:17.888Z,33.42
2022-11-17T10:59:57.182Z,29.92
2022-11-17T11:02:38.181Z,27.05
2022-11-17T11:05:13.373Z,27.67
2022-11-17T11:07:40.627Z,22.95
2022-11-17T11:10:34.469Z,28.33
2022-11-17T11:13:03.662Z,30.60
2022-11-17T11:15:34.172Z,30.25
2022-11-17T11:18:01.243Z,24.85
2022-11-17T11:20:53.861Z,33.67
2022-11-17T11:23:34.809Z,36.95
2022-11-17T11:26:16.318Z,45.58
2022-11-17T11:29:03.530Z,36.15
2022-11-17T11:31:35.903Z,18.77
2022-11-17T11:34:10.972Z,17.00
2022-11-17T11:36:47.307Z,18.05
2022-11-17T11:39:16.649Z,19.52
2022-11-17T11:42:08.134Z,17.42
2022-11-17T11:44:47.735Z,23.35
2022-11-17T11:47:47.791Z,30.80
2022-11-17T11:50:14.155Z,37.42
2022-11-17T11:52:46.199Z,23.42
2022-11-17T11:55:27.580Z,24.92
2022-11-17T11:58:02.515Z,22.42
2022-11-17T12:00:28.972Z,29.25
2022-11-17T12:03:04.545Z,18.33
2022-11-17T12:06:30.908Z,19.23
2022-11-17T12:09:18.956Z,21.90
2022-11-17T12:12:01.550Z,19.27
2022-11-17T12:17:15.934Z,19.35
2022-11-17T12:19:53.845Z,21.90
2022-11-17T12:22:26.260Z,19.40
2022-11-17T12:24:57.854Z,17.52
2022-11-17T12:27:36.247Z,18.95
2022-11-17T12:30:05.874Z,20.83
2022-11-17T12:32:44.159Z,18.48
2022-11-17T12:35:24.273Z,20.35
2022-11-17T12:38:15.558Z,19.77
2022-11-17T12:40:45.083Z,19.00
2022-11-17T12:43:14.452Z,17.77
2022-11-17T12:45:53.047Z,17.92
2022-11-17T12:48:35.114Z,17.77
2022-11-17T12:51:23.339Z,15.13
2022-11-17T12:53:58.647Z,15.05
2022-11-17T12:56:43.841Z,11.98
2022-11-17T12:59:39.843Z,9.07
2022-11-17T13:02:40.716Z,10.75
2022-11-17T13:05:17.729Z,9.18
2022-11-17T13:07:44.285Z,7.20
2022-11-17T13:10:29.381Z,13.57
2022-11-17T13:13:19.631Z,9.23
2022-11-17T13:15:55.575Z,7.18
2022-11-17T13:18:41.941Z,5.80
2022-11-17T13:21:26.444Z,5.13
2022-11-17T13:23:53.693Z,6.10
2022-11-17T13:26:26.072Z,5.22
2022-11-17T13:29:13.231Z,6.85
2022-11-17T13:31:39.880Z,6.53
2022-11-17T13:34:12.759Z,7.25
2022-11-17T13:36:57.921Z,9.93
2022-11-17T13:39:27.878Z,7.57
2022-11-17T13:41:56.104Z,5.88
2022-11-17T13:44:24.637Z,5.55
2022-11-17T13:46:51.027Z,4.63
2022-11-17T13:49:37.009Z,4.72
2022-11-17T13:52:05.238Z,3.95
2022-11-17T13:54:33.036Z,2.85
2022-11-17T13:57:06.863Z,3.92
2022-11-17T13:59:38.915Z,4.57
2022-11-17T14:02:24.477Z,5.30
2022-11-17T14:05:26.411Z,8.20
2022-11-17T14:07:54.516Z,8.30
2022-11-17T14:10:20.797Z,8.15
2022-11-17T14:12:47.116Z,7.13
2022-11-17T14:15:24.575Z,9.52
2022-11-17T14:17:56.595Z,8.30
2022-11-17T14:20:25.891Z,11.60
2022-11-17T14:23:18.667Z,8.98
2022-11-17T14:25:50.004Z,10.65
2022-11-17T14:28:18.337Z,10.48
2022-11-17T14:30:48.360Z,12.57
2022-11-17T14:33:14.705Z,12.25
2022-11-17T14:35:41.789Z,10.52
2022-11-17T14:38:11.240Z,11.30
2022-11-17T14:40:37.639Z,11.55
2022-11-17T14:43:04.051Z,9.70
2022-11-17T14:45:30.688Z,15.07
2022-11-17T14:47:57.124Z,10.05
2022-11-17T14:50:23.497Z,8.43
2022-11-17T14:52:49.909Z,9.73
2022-11-17T14:55:16.352Z,8.50
2022-11-17T14:57:42.878Z,9.25
2022-11-17T15:00:13.411Z,11.13
2022-11-17T15:02:42.309Z,8.98
2022-11-17T15:05:08.863Z,10.75
2022-11-17T15:07:35.275Z,8.93
2022-11-17T15:10:01.719Z,8.73
2022-11-17T15:12:29.736Z,12.48
2022-11-17T15:14:57.580Z,10.68
2022-11-17T15:17:25.259Z,10.90
2022-11-17T15:19:51.926Z,11.23
2022-11-17T15:22:18.467Z,10.93
2022-11-17T15:24:45.162Z,14.57
2022-11-17T15:27:12.342Z,10.50
2022-11-17T15:29:38.790Z,17.00
2022-11-17T15:32:05.677Z,14.20
2022-11-17T15:34:32.074Z,16.45
2022-11-17T15:36:58.470Z,16.08
2022-11-17T15:39:24.920Z,16.38
2022-11-17T15:41:51.828Z,14.98
2022-11-17T15:44:20.848Z,14.15
2022-11-17T15:46:48.066Z,18.95
2022-11-17T15:49:15.369Z,20.73
2022-11-17T15:51:42.155Z,17.60
2022-11-17T15:54:15.119Z,20.92
2022-11-17T15:56:46.297Z,19.10
2022-11-17T15:59:12.794Z,18.00
2022-11-17T16:01:40.491Z,25.17
2022-11-17T16:04:12.471Z,20.10
2022-11-17T16:06:41.227Z,21.30
2022-11-17T16:09:08.197Z,21.65
2022-11-17T16:11:35.157Z,25.63
2022-11-17T16:14:02.609Z,21.10
2022-11-17T16:16:31.595Z,20.35
2022-11-17T16:18:58.292Z,18.95
2022-11-17T16:21:25.106Z,19.13
2022-11-17T16:23:54.648Z,16.80
2022-11-17T16:26:22.421Z,20.05
2022-11-17T16:28:49.003Z,23.55
2022-11-17T16:31:15.471Z,66.90
2022-11-17T16:33:47.945Z,71.20
2022-11-17T16:36:14.291Z,102.90
2022-11-17T16:38:49.882Z,28.08
2022-11-17T16:41:28.948Z,74.13
2022-11-17T16:43:57.535Z,30.27
2022-11-17T16:46:26.361Z,22.73
2022-11-17T16:48:53.461Z,27.75
2022-11-17T16:51:20.906Z,30.73
2022-11-17T16:53:54.247Z,32.70
2022-11-17T16:56:20.584Z,24.73
2022-11-17T16:58:49.170Z,39.13
2022-11-17T17:01:24.026Z,23.42
2022-11-17T17:03:56.256Z,29.00
2022-11-17T17:06:22.993Z,28.52
2022-11-17T17:08:59.913Z,23.42
2022-11-17T17:13:56.158Z,25.60
2022-11-17T17:16:22.971Z,86.88
2022-11-17T17:18:54.355Z,223.35
2022-11-17T17:21:20.796Z,267.08
2022-11-17T17:23:47.253Z,299.17
2022-11-17T17:26:18.073Z,251.40
2022-11-17T17:28:46.888Z,281.02
2022-11-17T17:31:20.734Z,239.32
2022-11-17T17:33:48.528Z,290.92
2022-11-17T17:36:17.748Z,353.75
2022-11-17T17:38:44.199Z,253.93
2022-11-17T17:41:22.274Z,307.67
2022-11-17T17:43:54.957Z,348.08
2022-11-17T17:46:21.416Z,212.23
2022-11-17T17:48:47.923Z,247.05
2022-11-17T17:51:17.368Z,231.60
2022-11-17T17:53:44.141Z,408.77
2022-11-17T17:56:13.577Z,299.42
2022-11-17T17:58:41.218Z,273.80
2022-11-17T18:01:15.888Z,295.90
2022-11-17T18:03:45.634Z,376.05
2022-11-17T18:06:13.279Z,392.35
2022-11-17T18:08:40.011Z,397.98
2022-11-17T18:11:12.676Z,188.40
2022-11-17T18:13:41.698Z,266.80
2022-11-17T18:16:29.856Z,265.55
2022-11-17T18:19:08.383Z,236.48
2022-11-17T18:21:35.339Z,303.77
2022-11-17T18:24:03.163Z,272.52
2022-11-17T18:26:32.474Z,383.10
2022-11-17T18:29:01.764Z,315.98
2022-11-17T18:31:30.545Z,350.30
2022-11-17T18:34:02.639Z,272.17
2022-11-17T18:36:30.488Z,247.68
2022-11-17T18:38:58.568Z,393.35
2022-11-17T18:41:26.282Z,267.83
2022-11-17T18:43:54.593Z,226.38
2022-11-17T18:46:22.416Z,302.75
2022-11-17T18:48:53.455Z,399.73
2022-11-17T18:51:24.881Z,329.77
2022-11-17T18:53:54.034Z,283.60
2022-11-17T18:56:22.638Z,364.63
2022-11-17T18:58:49.161Z,391.73
2022-11-17T19:01:21.137Z,246.45
2022-11-17T19:03:50.506Z,336.88
2022-11-17T19:06:18.244Z,375.25
2022-11-17T19:08:45.502Z,462.17
2022-11-17T19:11:12.517Z,395.75
2022-11-17T19:13:40.578Z,333.88
2022-11-17T19:16:25.188Z,294.30
2022-11-17T19:18:54.527Z,296.83
2022-11-17T19:21:31.702Z,248.27
2022-11-17T19:24:00.617Z,276.50
2022-11-17T19:26:32.327Z,364.38
2022-11-17T19:29:01.052Z,254.77
2022-11-17T19:31:28.205Z,310.48
2022-11-17T19:33:55.268Z,161.20
2022-11-17T19:36:24.021Z,227.20
2022-11-17T19:38:52.804Z,167.35
2022-11-17T19:41:24.848Z,201.90
2022-11-17T19:43:55.690Z,207.02
2022-11-17T19:46:23.917Z,285.63
2022-11-17T19:48:50.898Z,341.17
2022-11-17T19:51:22.911Z,165.95
2022-11-17T19:53:51.716Z,389.98
2022-11-17T19:56:19.887Z,356.73
2022-11-17T19:58:46.714Z,258.85
2022-11-17T20:01:21.316Z,301.67
2022-11-17T20:03:49.030Z,359.80
2022-11-17T20:06:17.819Z,239.27
2022-11-17T20:08:45.275Z,247.07
2022-11-17T20:11:14.340Z,232.77
2022-11-17T20:13:41.495Z,251.50
2022-11-17T20:16:12.506Z,164.77
2022-11-17T20:18:40.371Z,138.00
2022-11-17T20:21:07.587Z,132.07
2022-11-17T20:23:35.577Z,199.27
2022-11-17T20:26:11.634Z,189.35
2022-11-17T20:28:38.488Z,202.02
2022-11-17T20:31:13.949Z,287.25
2022-11-17T20:33:42.226Z,111.75
2022-11-17T20:36:11.936Z,331.95
2022-11-17T20:38:38.361Z,156.95
2022-11-17T20:41:05.127Z,297.98
2022-11-17T20:43:32.278Z,113.75
2022-11-17T20:45:59.235Z,217.10
2022-11-17T20:48:26.384Z,438.08
2022-11-17T20:51:09.501Z,194.75
2022-11-17T20:53:36.347Z,264.00
2022-11-17T20:56:06.088Z,151.75
2022-11-17T20:58:33.540Z,223.75
2022-11-17T21:01:07.106Z,272.85
2022-11-17T21:03:33.889Z,182.90
2022-11-17T21:06:02.022Z,71.43
2022-11-17T21:08:30.964Z,88.53
2022-11-17T21:10:59.263Z,128.55
2022-11-17T21:13:27.582Z,98.93
2022-11-17T21:16:14.149Z,161.45
2022-11-17T21:18:49.455Z,188.30
2022-11-17T21:21:16.928Z,68.80
2022-11-17T21:23:44.648Z,327.42
2022-11-17T21:26:13.872Z,257.77
2022-11-17T21:28:41.307Z,132.38
2022-11-17T21:31:11.361Z,187.52
2022-11-17T21:33:38.640Z,97.75
2022-11-17T21:36:13.612Z,253.70
2022-11-17T21:38:40.290Z,206.18
2022-11-17T21:41:12.020Z,84.53
2022-11-17T21:43:40.155Z,100.93
2022-11-17T21:46:09.577Z,180.98
2022-11-17T21:48:37.316Z,211.10
2022-11-17T21:51:13.821Z,128.50
2022-11-17T21:53:41.465Z,95.05
2022-11-17T21:56:08.214Z,204.02
2022-11-17T21:58:34.727Z,88.07
2022-11-17T22:01:12.428Z,174.98
2022-11-17T22:03:40.183Z,78.50
2022-11-17T22:06:14.937Z,143.13
2022-11-17T22:08:42.943Z,127.82
2022-11-17T22:11:12.192Z,92.50
2022-11-17T22:13:39.217Z,36.65
2022-11-17T22:16:09.765Z,53.10
2022-11-17T22:18:37.771Z,47.13
2022-11-17T22:21:05.186Z,39.17
2022-11-17T22:23:31.624Z,37.13
2022-11-17T22:26:00.628Z,32.47
2022-11-17T22:28:27.420Z,32.95
2022-11-17T22:30:54.498Z,100.07
2022-11-17T22:33:22.573Z,92.25
2022-11-17T22:35:50.114Z,52.10
2022-11-17T22:38:17.165Z,32.55
2022-11-17T22:40:43.978Z,37.80
2022-11-17T22:43:14.907Z,48.50
2022-11-17T22:45:42.127Z,33.25
2022-11-17T22:48:08.985Z,78.00
2022-11-17T22:50:36.120Z,82.40
2022-11-17T22:53:02.993Z,62.65
2022-11-17T22:55:29.820Z,54.88
2022-11-17T22:57:56.335Z,54.10
2022-11-17T23:00:23.103Z,45.50
2022-11-17T23:02:49.745Z,87.38
2022-11-17T23:05:16.633Z,97.35
2022-11-17T23:07:43.269Z,82.60
2022-11-17T23:10:10.543Z,176.88
2022-11-17T23:12:37.124Z,144.07
2022-11-17T23:15:04.108Z,134.90
2022-11-17T23:17:30.738Z,198.40
2022-11-17T23:19:57.264Z,108.32
2022-11-17T23:22:23.594Z,143.05
2022-11-17T23:24:50.036Z,83.65
2022-11-17T23:27:16.587Z,32.92
2022-11-17T23:29:43.227Z,46.20
2022-11-17T23:32:09.873Z,53.65
2022-11-17T23:34:36.256Z,39.17
2022-11-17T23:37:04.111Z,30.85
2022-11-17T23:39:30.703Z,31.77
2022-11-17T23:41:57.095Z,30.63
2022-11-17T23:44:23.500Z,35.30
2022-11-17T23:46:49.957Z,26.05
2022-11-17T23:49:17.541Z,31.10
2022-11-17T23:51:44.475Z,34.40
2022-11-17T23:54:12.195Z,30.25
2022-11-17T23:56:38.919Z,35.92
2022-11-17T23:59:05.639Z,33.17
